createdAt,value
2022-08-20T00:02:15.914Z,74.03
2022-08-20T00:04:48.055Z,73.00
2022-08-20T00:07:20.326Z,71.80
2022-08-20T00:09:48.440Z,79.23
2022-08-20T00:12:19.260Z,67.93
2022-08-20T00:14:50.868Z,68.20
2022-08-20T00:17:18.886Z,69.27
2022-08-20T00:19:46.846Z,68.40
2022-08-20T00:22:24.482Z,66.50
2022-08-20T00:24:54.364Z,60.43
2022-08-20T00:27:22.553Z,65.53
2022-08-20T00:29:50.809Z,69.07
2022-08-20T00:32:20.314Z,68.10
2022-08-20T00:34:52.363Z,72.53
2022-08-20T00:37:20.552Z,65.20
2022-08-20T00:39:48.834Z,65.63
2022-08-20T00:42:18.534Z,64.17
2022-08-20T00:44:48.535Z,65.63
2022-08-20T00:47:24.466Z,68.67
2022-08-20T00:49:52.275Z,62.83
2022-08-20T00:52:23.116Z,66.90
2022-08-20T00:54:56.398Z,65.00
2022-08-20T00:57:43.884Z,63.13
2022-08-20T01:00:32.438Z,62.47
2022-08-20T01:03:01.834Z,64.57
2022-08-20T01:05:30.348Z,66.20
2022-08-20T01:07:59.429Z,66.50
2022-08-20T01:10:34.825Z,63.63
2022-08-20T01:13:11.867Z,64.33
2022-08-20T01:15:44.177Z,62.00
2022-08-20T01:18:25.790Z,63.60
2022-08-20T01:21:03.601Z,63.77
2022-08-20T01:23:39.416Z,62.67
2022-08-20T01:26:12.814Z,56.80
2022-08-20T01:28:44.362Z,59.03
2022-08-20T01:31:14.824Z,62.97
2022-08-20T01:33:44.145Z,66.87
2022-08-20T01:36:16.686Z,63.27
2022-08-20T01:38:54.342Z,66.53
2022-08-20T01:42:07.957Z,68.73
2022-08-20T01:44:39.830Z,64.27
2022-08-20T01:47:16.050Z,70.27
2022-08-20T01:49:49.949Z,75.77
2022-08-20T01:52:30.120Z,72.30
2022-08-20T01:55:01.751Z,69.37
2022-08-20T01:57:36.215Z,79.57
2022-08-20T02:00:08.190Z,79.93
2022-08-20T02:02:39.414Z,77.17
2022-08-20T02:05:08.618Z,79.57
2022-08-20T02:07:37.761Z,82.70
2022-08-20T02:10:10.527Z,115.27
2022-08-20T02:12:40.050Z,82.97
2022-08-20T02:15:12.148Z,80.23
2022-08-20T02:17:44.947Z,82.10
2022-08-20T02:20:18.440Z,77.33
2022-08-20T02:22:50.390Z,73.30
2022-08-20T02:25:20.316Z,71.80
2022-08-20T02:27:53.509Z,75.27
2022-08-20T02:30:28.363Z,76.37
2022-08-20T02:32:57.890Z,72.43
2022-08-20T02:35:26.813Z,81.10
2022-08-20T02:37:56.067Z,69.00
2022-08-20T02:40:31.200Z,94.10
2022-08-20T02:43:14.838Z,63.07
2022-08-20T02:45:45.013Z,56.37
2022-08-20T02:48:23.772Z,57.37
2022-08-20T02:50:55.264Z,56.03
2022-08-20T02:53:24.689Z,58.17
2022-08-20T02:56:05.617Z,59.27
2022-08-20T02:58:35.376Z,67.13
2022-08-20T03:01:08.567Z,57.97
2022-08-20T03:03:36.736Z,50.07
2022-08-20T03:06:04.963Z,49.43
2022-08-20T03:08:34.009Z,54.63
2022-08-20T03:11:01.958Z,46.63
2022-08-20T03:13:30.170Z,68.97
2022-08-20T03:16:01.015Z,59.97
2022-08-20T03:18:33.871Z,45.60
2022-08-20T03:21:02.916Z,42.87
2022-08-20T03:23:31.249Z,49.23
2022-08-20T03:26:00.327Z,49.90
2022-08-20T03:28:29.938Z,46.03
2022-08-20T03:31:17.143Z,46.80
2022-08-20T03:33:56.789Z,41.53
2022-08-20T03:36:28.761Z,41.87
2022-08-20T03:39:01.498Z,44.97
2022-08-20T03:41:29.795Z,51.87
2022-08-20T03:43:58.081Z,49.80
2022-08-20T03:46:26.792Z,47.17
2022-08-20T03:49:00.357Z,46.17
2022-08-20T03:51:29.993Z,47.27
2022-08-20T03:53:59.041Z,44.10
2022-08-20T03:56:27.079Z,41.43
2022-08-20T03:59:11.126Z,50.63
2022-08-20T04:01:46.252Z,42.40
2022-08-20T04:04:17.062Z,42.03
2022-08-20T04:06:48.849Z,46.17
2022-08-20T04:09:17.284Z,48.43
2022-08-20T04:11:45.670Z,42.10
2022-08-20T04:14:18.452Z,48.83
2022-08-20T04:16:49.109Z,42.50
2022-08-20T04:19:18.695Z,41.17
2022-08-20T04:21:48.615Z,44.00
2022-08-20T04:24:26.608Z,44.83
2022-08-20T04:27:03.276Z,43.13
2022-08-20T04:29:32.661Z,44.67
2022-08-20T04:32:05.710Z,41.87
2022-08-20T04:34:35.992Z,41.60
2022-08-20T04:37:05.203Z,46.13
2022-08-20T04:39:33.878Z,44.10
2022-08-20T04:42:02.128Z,41.87
2022-08-20T04:44:30.223Z,43.67
2022-08-20T04:46:59.548Z,46.67
2022-08-20T04:49:28.049Z,45.80
2022-08-20T04:51:57.820Z,49.77
2022-08-20T04:54:25.863Z,51.07
2022-08-20T04:57:02.023Z,52.63
2022-08-20T04:59:36.421Z,47.83
2022-08-20T05:02:05.099Z,48.33
2022-08-20T05:04:33.063Z,58.83
2022-08-20T05:07:03.358Z,62.03
2022-08-20T05:09:43.625Z,61.10
2022-08-20T05:12:12.952Z,63.37
2022-08-20T05:14:40.747Z,68.13
2022-08-20T05:17:09.872Z,69.93
2022-08-20T05:19:38.955Z,70.43
2022-08-20T05:22:09.257Z,68.00
2022-08-20T05:24:37.446Z,72.30
2022-08-20T05:27:05.926Z,71.97
2022-08-20T05:29:34.197Z,71.70
2022-08-20T05:32:09.367Z,72.40
2022-08-20T05:34:38.956Z,72.17
2022-08-20T05:37:08.397Z,60.67
2022-08-20T05:39:56.438Z,57.43
2022-08-20T05:42:55.758Z,60.07
2022-08-20T05:45:25.270Z,59.37
2022-08-20T05:47:56.587Z,55.80
2022-08-20T05:50:35.808Z,58.37
2022-08-20T05:53:29.012Z,57.43
2022-08-20T05:55:56.949Z,55.73
2022-08-20T05:58:42.960Z,62.47
2022-08-20T06:01:11.231Z,56.13
2022-08-20T06:03:57.336Z,56.00
2022-08-20T06:06:45.318Z,57.27
2022-08-20T06:09:16.267Z,54.40
2022-08-20T06:11:55.755Z,53.17
2022-08-20T06:14:39.782Z,56.27
2022-08-20T06:17:10.230Z,57.23
2022-08-20T06:19:44.193Z,63.50
2022-08-20T06:22:19.601Z,70.80
2022-08-20T06:24:54.755Z,62.23
2022-08-20T06:27:23.108Z,70.60
2022-08-20T06:29:52.063Z,80.37
2022-08-20T06:32:32.022Z,77.03
2022-08-20T06:35:01.950Z,62.70
2022-08-20T06:37:31.890Z,74.13
2022-08-20T06:40:07.305Z,78.73
2022-08-20T06:42:36.391Z,75.93
2022-08-20T06:45:06.214Z,75.67
2022-08-20T06:47:35.157Z,87.93
2022-08-20T06:50:03.518Z,95.00
2022-08-20T06:52:51.736Z,99.30
2022-08-20T06:55:23.776Z,107.17
2022-08-20T06:57:59.632Z,82.67
2022-08-20T07:00:33.370Z,153.97
2022-08-20T07:03:03.388Z,97.90
2022-08-20T07:05:33.687Z,881.17
2022-08-20T07:08:02.728Z,123.03
2022-08-20T07:10:32.769Z,110.40
2022-08-20T07:13:00.942Z,102.93
2022-08-20T07:15:29.037Z,110.53
2022-08-20T07:18:01.680Z,112.73
2022-08-20T07:20:30.362Z,243.33
2022-08-20T07:23:01.356Z,120.13
2022-08-20T07:25:35.332Z,147.97
2022-08-20T07:28:05.011Z,121.40
2022-08-20T07:30:59.387Z,125.17
2022-08-20T07:33:41.234Z,102.70
2022-08-20T07:36:10.850Z,104.40
2022-08-20T07:38:39.440Z,241.97
2022-08-20T07:41:15.234Z,117.23
2022-08-20T07:43:45.812Z,105.27
2022-08-20T07:46:18.070Z,123.63
2022-08-20T07:48:51.425Z,153.70
2022-08-20T07:51:22.483Z,175.53
2022-08-20T07:53:52.007Z,126.97
2022-08-20T07:56:24.844Z,127.60
2022-08-20T07:58:56.342Z,141.33
2022-08-20T08:01:28.674Z,180.00
2022-08-20T08:04:00.763Z,110.37
2022-08-20T08:06:31.496Z,137.40
2022-08-20T08:09:04.272Z,120.73
2022-08-20T08:11:37.527Z,103.20
2022-08-20T08:14:07.671Z,119.53
2022-08-20T08:16:35.750Z,111.77
2022-08-20T08:19:07.456Z,133.10
2022-08-20T08:21:35.280Z,125.37
2022-08-20T08:24:03.215Z,213.73
2022-08-20T08:26:31.069Z,181.17
2022-08-20T08:29:00.515Z,153.03
2022-08-20T08:31:31.098Z,137.10
2022-08-20T08:33:59.146Z,167.07
2022-08-20T08:36:27.337Z,123.63
2022-08-20T08:38:56.865Z,150.53
2022-08-20T08:41:32.449Z,109.73
2022-08-20T08:44:07.911Z,112.73
2022-08-20T08:46:42.079Z,184.77
2022-08-20T08:49:13.895Z,108.13
2022-08-20T08:51:45.176Z,169.53
2022-08-20T08:54:17.482Z,174.17
2022-08-20T08:56:49.737Z,101.50
2022-08-20T08:59:21.848Z,80.67
2022-08-20T09:01:56.976Z,56.73
2022-08-20T09:04:31.901Z,55.27
2022-08-20T09:07:04.685Z,73.27
2022-08-20T09:09:36.638Z,79.80
2022-08-20T09:12:07.296Z,138.40
2022-08-20T09:14:37.056Z,62.07
2022-08-20T09:17:06.622Z,59.80
2022-08-20T09:19:34.507Z,55.67
2022-08-20T09:22:08.913Z,82.50
2022-08-20T09:24:36.798Z,92.90
2022-08-20T09:27:08.935Z,88.20
2022-08-20T09:29:38.735Z,97.97
2022-08-20T09:32:08.117Z,176.80
2022-08-20T09:34:40.183Z,63.37
2022-08-20T09:37:08.378Z,55.00
2022-08-20T09:39:38.132Z,79.67
2022-08-20T09:42:12.273Z,92.27
2022-08-20T09:44:42.412Z,37.53
2022-08-20T09:47:10.836Z,31.90
2022-08-20T09:49:39.379Z,37.23
2022-08-20T09:52:09.306Z,37.47
2022-08-20T09:54:38.561Z,34.33
2022-08-20T09:57:09.422Z,37.17
2022-08-20T09:59:38.262Z,37.23
2022-08-20T10:02:07.507Z,33.53
2022-08-20T10:04:35.394Z,32.13
2022-08-20T10:07:08.479Z,44.70
2022-08-20T10:09:36.619Z,41.10
2022-08-20T10:12:05.038Z,59.97
2022-08-20T10:14:33.360Z,177.83
2022-08-20T10:17:05.779Z,159.60
2022-08-20T10:19:35.321Z,106.50
2022-08-20T10:22:04.386Z,80.33
2022-08-20T10:24:33.348Z,42.10
2022-08-20T10:27:02.492Z,40.90
2022-08-20T10:29:32.098Z,43.53
2022-08-20T10:32:12.237Z,40.80
2022-08-20T10:34:41.756Z,40.30
2022-08-20T10:37:10.278Z,43.83
2022-08-20T10:39:38.475Z,57.33
2022-08-20T10:42:06.699Z,49.17
2022-08-20T10:44:34.482Z,64.53
2022-08-20T10:47:15.131Z,100.10
2022-08-20T10:49:45.621Z,44.53
2022-08-20T10:52:13.546Z,42.73
2022-08-20T10:54:42.350Z,43.97
2022-08-20T10:57:14.098Z,43.07
2022-08-20T10:59:42.470Z,42.50
2022-08-20T11:02:10.397Z,45.13
2022-08-20T11:04:38.539Z,44.57
2022-08-20T11:07:20.965Z,46.17
2022-08-20T11:09:50.390Z,48.40
2022-08-20T11:12:20.202Z,57.63
2022-08-20T11:14:50.120Z,69.63
2022-08-20T11:17:23.512Z,48.83
2022-08-20T11:19:51.719Z,66.87
2022-08-20T11:22:21.261Z,66.87
2022-08-20T11:24:49.131Z,63.30
2022-08-20T11:27:24.551Z,63.10
2022-08-20T11:29:52.979Z,51.57
2022-08-20T11:32:21.477Z,67.73
2022-08-20T11:34:49.164Z,69.13
2022-08-20T11:37:18.506Z,80.97
2022-08-20T11:39:47.615Z,77.60
2022-08-20T11:42:15.732Z,83.07
2022-08-20T11:44:43.993Z,99.03
2022-08-20T11:47:22.741Z,77.00
2022-08-20T11:49:59.077Z,49.03
2022-08-20T11:52:48.010Z,65.15
2022-08-20T11:55:19.362Z,72.85
2022-08-20T11:57:50.238Z,81.20
2022-08-20T12:00:32.961Z,98.10
2022-08-20T12:03:02.642Z,99.63
2022-08-20T12:05:35.853Z,95.78
2022-08-20T12:08:28.208Z,116.13
2022-08-20T12:10:54.704Z,107.22
2022-08-20T12:13:48.166Z,174.55
2022-08-20T12:16:21.963Z,151.85
2022-08-20T12:18:52.696Z,188.27
2022-08-20T12:21:48.357Z,189.40
2022-08-20T12:24:18.560Z,174.13
2022-08-20T12:26:48.434Z,214.52
2022-08-20T12:29:16.621Z,199.32
2022-08-20T12:31:47.499Z,211.07
2022-08-20T12:34:17.732Z,184.13
2022-08-20T12:36:50.028Z,261.20
2022-08-20T12:39:40.036Z,197.80
2022-08-20T12:42:33.284Z,208.05
2022-08-20T12:45:02.152Z,171.88
2022-08-20T12:50:31.287Z,281.58
2022-08-20T12:53:00.050Z,290.95
2022-08-20T12:55:37.337Z,264.95
2022-08-20T12:58:33.147Z,299.35
2022-08-20T13:01:01.476Z,241.00
2022-08-20T13:03:43.147Z,236.90
2022-08-20T13:06:34.637Z,276.40
2022-08-20T13:09:02.719Z,296.83
2022-08-20T13:11:30.566Z,255.70
2022-08-20T13:13:59.841Z,283.65
2022-08-20T13:16:27.992Z,249.80
2022-08-20T13:18:55.767Z,268.48
2022-08-20T13:21:24.069Z,294.30
2022-08-20T13:23:51.927Z,269.77
2022-08-20T13:26:20.231Z,303.83
2022-08-20T13:28:47.944Z,312.70
2022-08-20T13:31:16.992Z,318.40
2022-08-20T13:33:46.246Z,327.02
2022-08-20T13:36:14.303Z,309.50
2022-08-20T13:38:42.041Z,307.40
2022-08-20T13:41:09.724Z,292.15
2022-08-20T13:43:37.415Z,246.68
2022-08-20T13:46:06.506Z,206.35
2022-08-20T13:48:35.623Z,203.85
2022-08-20T13:51:03.336Z,227.07
2022-08-20T13:53:34.694Z,233.32
2022-08-20T13:56:02.581Z,286.17
2022-08-20T13:58:30.231Z,275.20
2022-08-20T14:00:58.019Z,244.75
2022-08-20T14:03:25.918Z,260.48
2022-08-20T14:05:56.913Z,239.65
2022-08-20T14:08:25.474Z,245.30
2022-08-20T14:10:53.251Z,212.32
2022-08-20T14:13:23.193Z,190.88
2022-08-20T14:15:51.346Z,159.10
2022-08-20T14:18:19.358Z,156.55
2022-08-20T14:20:47.528Z,135.30
2022-08-20T14:23:16.795Z,137.73
2022-08-20T14:25:47.439Z,132.23
2022-08-20T14:28:18.252Z,127.13
2022-08-20T14:30:52.599Z,102.90
2022-08-20T14:33:21.244Z,104.47
2022-08-20T14:35:49.205Z,108.20
2022-08-20T14:38:18.430Z,108.22
2022-08-20T14:40:47.521Z,107.00
2022-08-20T14:43:15.314Z,107.43
2022-08-20T14:45:43.274Z,113.07
2022-08-20T14:48:11.237Z,114.50
2022-08-20T14:50:39.537Z,89.77
2022-08-20T14:53:08.035Z,87.30
2022-08-20T14:55:38.643Z,72.93
2022-08-20T14:58:10.568Z,76.50
2022-08-20T15:00:38.955Z,71.07
2022-08-20T15:03:06.999Z,70.20
2022-08-20T15:05:39.305Z,62.80
2022-08-20T15:08:08.302Z,51.77
2022-08-20T15:10:40.418Z,50.57
2022-08-20T15:13:11.247Z,50.40
2022-08-20T15:15:42.048Z,45.13
2022-08-20T15:18:10.863Z,45.03
2022-08-20T15:20:39.323Z,46.53
2022-08-20T15:23:10.582Z,44.03
2022-08-20T15:25:39.795Z,39.27
2022-08-20T15:28:10.546Z,45.13
2022-08-20T15:30:40.639Z,43.07
2022-08-20T15:33:08.557Z,39.83
2022-08-20T15:35:36.647Z,35.87
2022-08-20T15:38:04.449Z,38.80
2022-08-20T15:40:34.088Z,35.57
2022-08-20T15:43:05.095Z,38.20
2022-08-20T15:45:33.234Z,39.87
2022-08-20T15:48:08.606Z,37.33
2022-08-20T15:50:51.265Z,40.00
2022-08-20T15:53:24.163Z,40.70
2022-08-20T15:56:00.248Z,39.03
2022-08-20T15:58:38.031Z,40.67
2022-08-20T16:01:25.102Z,45.60
2022-08-20T16:04:21.346Z,39.90
2022-08-20T16:06:51.718Z,44.00
2022-08-20T16:09:39.198Z,43.30
2022-08-20T16:12:11.276Z,41.10
2022-08-20T16:14:43.802Z,55.27
2022-08-20T16:17:16.265Z,224.47
2022-08-20T16:19:51.364Z,595.43
2022-08-20T16:22:21.365Z,1999.90
2022-08-20T16:24:50.168Z,972.37
2022-08-20T16:27:29.040Z,1999.90
2022-08-20T16:30:04.309Z,1999.90
2022-08-20T16:32:42.393Z,1057.90
2022-08-20T16:35:32.999Z,1128.77
2022-08-20T16:38:13.279Z,1999.90
2022-08-20T16:40:53.050Z,1211.53
2022-08-20T16:43:24.919Z,1203.47
2022-08-20T16:46:00.869Z,802.43
2022-08-20T16:48:39.116Z,1138.00
2022-08-20T16:51:13.654Z,690.77
2022-08-20T16:53:41.464Z,539.40
2022-08-20T16:56:10.371Z,548.53
2022-08-20T16:58:38.852Z,614.10
2022-08-20T17:01:13.409Z,557.10
2022-08-20T17:03:50.976Z,502.67
2022-08-20T17:06:29.395Z,367.67
2022-08-20T17:08:58.371Z,295.27
2022-08-20T17:11:32.782Z,362.13
2022-08-20T17:14:11.572Z,340.90
2022-08-20T17:16:45.411Z,276.50
2022-08-20T17:19:20.864Z,430.33
2022-08-20T17:21:50.841Z,461.53
2022-08-20T17:24:26.725Z,479.10
2022-08-20T17:27:00.999Z,357.53
2022-08-20T17:29:32.041Z,294.50
2022-08-20T17:32:12.329Z,344.63
2022-08-20T17:34:46.321Z,414.87
2022-08-20T17:37:25.924Z,341.03
2022-08-20T17:39:57.164Z,291.60
2022-08-20T17:42:28.061Z,275.87
2022-08-20T17:45:02.276Z,352.40
2022-08-20T17:47:36.548Z,336.63
2022-08-20T17:50:12.571Z,326.50
2022-08-20T17:52:46.895Z,342.60
2022-08-20T17:55:15.316Z,352.77
2022-08-20T17:57:49.731Z,364.77
2022-08-20T18:00:25.249Z,337.10
2022-08-20T18:02:59.760Z,282.13
2022-08-20T18:05:30.907Z,357.13
2022-08-20T18:08:25.201Z,309.87
2022-08-20T18:11:03.723Z,286.83
2022-08-20T18:14:06.578Z,285.20
2022-08-20T18:16:43.775Z,275.20
2022-08-20T18:19:16.723Z,281.57
2022-08-20T18:22:13.449Z,337.63
2022-08-20T18:24:50.509Z,322.97
2022-08-20T18:27:23.181Z,404.97
2022-08-20T18:29:58.262Z,384.77
2022-08-20T18:32:31.462Z,355.47
2022-08-20T18:35:14.698Z,347.63
2022-08-20T18:37:43.299Z,255.67
2022-08-20T18:40:19.312Z,272.83
2022-08-20T18:42:50.155Z,261.03
2022-08-20T18:45:29.476Z,273.23
2022-08-20T18:47:57.644Z,251.83
2022-08-20T18:50:33.221Z,283.93
2022-08-20T18:53:12.357Z,296.60
2022-08-20T18:55:42.958Z,320.87
2022-08-20T18:58:13.502Z,338.57
2022-08-20T19:00:47.062Z,292.10
2022-08-20T19:03:26.208Z,228.20
2022-08-20T19:06:10.068Z,229.13
2022-08-20T19:08:48.743Z,260.07
2022-08-20T19:11:37.987Z,212.67
2022-08-20T19:14:24.356Z,201.00
2022-08-20T19:16:57.651Z,219.43
2022-08-20T19:19:32.210Z,270.97
2022-08-20T19:22:03.851Z,303.90
2022-08-20T19:24:35.080Z,228.80
2022-08-20T19:27:07.340Z,260.43
2022-08-20T19:29:41.036Z,241.23
2022-08-20T19:32:10.697Z,234.07
2022-08-20T19:34:39.824Z,186.47
2022-08-20T19:37:27.924Z,214.03
2022-08-20T19:40:08.824Z,181.47
2022-08-20T19:42:44.237Z,276.07
2022-08-20T19:45:19.842Z,254.60
2022-08-20T19:47:54.298Z,216.60
2022-08-20T19:50:30.133Z,244.03
2022-08-20T19:53:11.494Z,244.50
2022-08-20T19:55:41.387Z,267.43
2022-08-20T19:58:26.092Z,307.83
2022-08-20T20:00:55.646Z,270.13
2022-08-20T20:03:25.666Z,199.77
2022-08-20T20:05:55.743Z,185.00
2022-08-20T20:08:29.302Z,169.43
2022-08-20T20:11:00.665Z,237.93
2022-08-20T20:13:35.669Z,205.00
2022-08-20T20:16:10.732Z,223.23
2022-08-20T20:18:42.147Z,217.77
2022-08-20T20:21:16.364Z,212.73
2022-08-20T20:23:54.820Z,179.93
2022-08-20T20:26:32.562Z,136.70
2022-08-20T20:29:06.494Z,147.63
2022-08-20T20:31:52.153Z,159.80
2022-08-20T20:34:26.832Z,173.40
2022-08-20T20:37:05.272Z,182.23
2022-08-20T20:39:37.990Z,215.50
2022-08-20T20:42:13.135Z,172.77
2022-08-20T20:44:45.714Z,176.17
2022-08-20T20:47:29.001Z,222.93
2022-08-20T20:50:00.676Z,204.37
2022-08-20T20:52:31.814Z,192.77
2022-08-20T20:55:16.481Z,217.40
2022-08-20T20:57:44.502Z,196.77
2022-08-20T21:00:17.446Z,264.63
2022-08-20T21:02:45.961Z,267.90
2022-08-20T21:05:19.038Z,261.30
2022-08-20T21:07:50.543Z,240.70
2022-08-20T21:10:27.223Z,232.27
2022-08-20T21:12:55.240Z,205.93
2022-08-20T21:15:26.042Z,225.27
2022-08-20T21:17:55.605Z,197.00
2022-08-20T21:20:24.045Z,209.83
2022-08-20T21:22:52.202Z,210.03
2022-08-20T21:25:21.687Z,190.40
2022-08-20T21:27:51.452Z,180.77
2022-08-20T21:30:21.343Z,171.43
2022-08-20T21:32:49.682Z,149.60
2022-08-20T21:35:18.653Z,171.67
2022-08-20T21:37:46.388Z,180.93
2022-08-20T21:40:15.467Z,171.03
2022-08-20T21:42:55.805Z,142.20
2022-08-20T21:45:28.487Z,161.90
2022-08-20T21:47:57.476Z,252.67
2022-08-20T21:50:26.259Z,289.30
2022-08-20T21:52:59.093Z,177.10
2022-08-20T21:55:27.835Z,241.37
2022-08-20T21:57:57.910Z,231.93
2022-08-20T22:00:50.169Z,202.90
2022-08-20T22:03:20.213Z,135.13
2022-08-20T22:06:02.013Z,146.83
2022-08-20T22:08:33.237Z,148.13
2022-08-20T22:11:03.931Z,124.27
2022-08-20T22:13:35.997Z,127.73
2022-08-20T22:16:06.939Z,124.03
2022-08-20T22:18:35.044Z,120.47
2022-08-20T22:21:03.818Z,115.87
2022-08-20T22:23:32.641Z,132.73
2022-08-20T22:26:01.137Z,116.43
2022-08-20T22:28:29.100Z,130.17
2022-08-20T22:31:00.297Z,122.13
2022-08-20T22:33:29.238Z,100.60
2022-08-20T22:35:58.673Z,98.33
2022-08-20T22:38:27.794Z,87.93
2022-08-20T22:40:55.844Z,90.87
2022-08-20T22:43:29.312Z,91.17
2022-08-20T22:46:01.941Z,111.37
2022-08-20T22:48:32.580Z,111.23
2022-08-20T22:51:00.810Z,104.57
2022-08-20T22:53:30.220Z,91.27
2022-08-20T22:56:19.774Z,95.60
2022-08-20T22:58:51.278Z,79.73
2022-08-20T23:01:21.726Z,77.83
2022-08-20T23:03:49.987Z,91.77
2022-08-20T23:06:18.745Z,88.07
2022-08-20T23:08:46.973Z,87.87
2022-08-20T23:11:47.340Z,86.30
2022-08-20T23:14:15.172Z,78.93
2022-08-20T23:16:47.233Z,87.47
2022-08-20T23:19:23.500Z,82.37
2022-08-20T23:21:52.188Z,73.63
2022-08-20T23:24:20.792Z,86.73
2022-08-20T23:26:52.411Z,100.63
2022-08-20T23:29:25.437Z,75.07
2022-08-20T23:31:56.718Z,81.63
2022-08-20T23:34:25.754Z,72.83
2022-08-20T23:37:19.258Z,64.40
2022-08-20T23:39:47.748Z,58.27
2022-08-20T23:42:16.014Z,63.27
2022-08-20T23:44:46.079Z,54.83
2022-08-20T23:47:24.370Z,154.03
2022-08-20T23:49:54.195Z,59.37
2022-08-20T23:52:22.228Z,64.40
2022-08-20T23:54:50.515Z,61.67
2022-08-20T23:57:21.124Z,52.60
2022-08-20T23:59:53.018Z,58.63
